createdAt,value
2023-01-27T00:01:08.025Z,2.33
2023-01-27T00:03:36.184Z,3.10
2023-01-27T00:06:06.762Z,2.78
2023-01-27T00:08:34.877Z,2.10
2023-01-27T00:11:38.088Z,3.38
2023-01-27T00:14:05.855Z,3.30
2023-01-27T00:16:33.726Z,4.57
2023-01-27T00:19:01.630Z,3.25
2023-01-27T00:21:47.811Z,1.90
2023-01-27T00:24:33.883Z,2.53
2023-01-27T00:27:02.006Z,2.70
2023-01-27T00:29:29.988Z,4.38
2023-01-27T00:32:18.979Z,2.65
2023-01-27T00:34:49.201Z,2.20
2023-01-27T00:37:17.802Z,2.28
2023-01-27T00:39:45.484Z,2.47
2023-01-27T00:42:13.508Z,2.10
2023-01-27T00:45:01.310Z,1.60
2023-01-27T00:47:29.861Z,1.75
2023-01-27T00:49:57.920Z,4.03
2023-01-27T00:52:26.188Z,1.85
2023-01-27T00:54:54.252Z,3.53
2023-01-27T00:57:22.650Z,2.30
2023-01-27T00:59:51.157Z,2.30
2023-01-27T01:02:19.235Z,2.05
2023-01-27T01:04:47.342Z,1.67
2023-01-27T01:07:15.313Z,2.53
2023-01-27T01:09:43.328Z,2.13
2023-01-27T01:12:11.026Z,2.00
2023-01-27T01:14:38.766Z,2.30
2023-01-27T01:17:07.272Z,1.70
2023-01-27T01:19:35.155Z,2.17
2023-01-27T01:22:05.052Z,2.13
2023-01-27T01:24:32.896Z,1.98
2023-01-27T01:27:01.010Z,2.05
2023-01-27T01:29:29.216Z,2.53
2023-01-27T01:31:57.138Z,1.83
2023-01-27T01:34:24.862Z,4.63
2023-01-27T01:36:52.719Z,2.00
2023-01-27T01:39:20.639Z,1.90
2023-01-27T01:41:48.576Z,2.53
2023-01-27T01:44:24.624Z,2.03
2023-01-27T01:46:52.582Z,2.30
2023-01-27T01:49:23.072Z,2.10
2023-01-27T01:52:00.859Z,2.15
2023-01-27T01:54:32.538Z,2.10
2023-01-27T01:57:13.993Z,1.95
2023-01-27T01:59:56.039Z,2.13
2023-01-27T02:02:26.401Z,1.73
2023-01-27T02:05:11.212Z,1.92
2023-01-27T02:07:48.196Z,2.60
2023-01-27T02:10:16.161Z,1.95
2023-01-27T02:12:43.971Z,2.13
2023-01-27T02:15:12.922Z,2.10
2023-01-27T02:17:41.354Z,1.77
2023-01-27T02:20:59.933Z,1.95
2023-01-27T02:23:44.613Z,1.85
2023-01-27T02:26:18.419Z,2.28
2023-01-27T02:28:46.558Z,1.95
2023-01-27T02:31:14.711Z,2.33
2023-01-27T02:33:42.686Z,2.00
2023-01-27T02:36:14.407Z,2.47
2023-01-27T02:38:52.342Z,1.83
2023-01-27T02:41:42.413Z,1.90
2023-01-27T02:44:12.594Z,1.92
2023-01-27T02:46:40.722Z,1.90
2023-01-27T02:49:09.259Z,1.48
2023-01-27T02:51:37.614Z,1.70
2023-01-27T02:54:06.556Z,1.95
2023-01-27T02:56:34.922Z,2.00
2023-01-27T02:59:03.105Z,1.80
2023-01-27T03:01:36.783Z,1.90
2023-01-27T03:04:06.230Z,2.15
2023-01-27T03:06:35.100Z,1.85
2023-01-27T03:09:02.992Z,1.92
2023-01-27T03:11:49.414Z,2.35
2023-01-27T03:14:19.000Z,1.80
2023-01-27T03:17:07.114Z,2.10
2023-01-27T03:19:35.127Z,1.98
2023-01-27T03:22:04.277Z,2.10
2023-01-27T03:24:34.479Z,1.67
2023-01-27T03:27:06.599Z,1.80
2023-01-27T03:29:59.921Z,2.20
2023-01-27T03:32:29.630Z,2.20
2023-01-27T03:35:17.773Z,2.10
2023-01-27T03:38:07.842Z,2.15
2023-01-27T03:40:54.200Z,2.13
2023-01-27T03:43:43.042Z,1.65
2023-01-27T03:46:19.909Z,2.28
2023-01-27T03:48:55.249Z,1.80
2023-01-27T03:51:26.495Z,1.83
2023-01-27T03:53:54.499Z,1.73
2023-01-27T03:56:22.965Z,3.15
2023-01-27T03:58:51.223Z,3.63
2023-01-27T04:01:22.975Z,2.53
2023-01-27T04:04:09.936Z,1.80
2023-01-27T04:06:58.644Z,2.00
2023-01-27T04:09:32.273Z,1.88
2023-01-27T04:12:01.852Z,1.85
2023-01-27T04:14:32.670Z,1.20
2023-01-27T04:17:06.373Z,3.20
2023-01-27T04:19:34.449Z,2.33
2023-01-27T04:22:03.008Z,1.70
2023-01-27T04:24:30.869Z,1.58
2023-01-27T04:27:01.174Z,1.73
2023-01-27T04:29:30.765Z,1.70
2023-01-27T04:31:59.254Z,1.70
2023-01-27T04:34:28.027Z,2.03
2023-01-27T04:36:56.677Z,1.73
2023-01-27T04:39:25.666Z,2.00
2023-01-27T04:41:53.829Z,2.65
2023-01-27T04:44:21.711Z,1.60
2023-01-27T04:46:50.376Z,1.50
2023-01-27T04:49:18.623Z,2.47
2023-01-27T04:51:47.483Z,1.85
2023-01-27T04:54:16.622Z,1.75
2023-01-27T04:57:03.760Z,3.08
2023-01-27T04:59:31.875Z,1.70
2023-01-27T05:02:00.073Z,2.15
2023-01-27T05:04:28.166Z,2.10
2023-01-27T05:06:56.340Z,1.65
2023-01-27T05:09:24.373Z,2.58
2023-01-27T05:11:52.306Z,1.30
2023-01-27T05:14:20.413Z,1.73
2023-01-27T05:16:48.121Z,1.50
2023-01-27T05:19:16.394Z,1.55
2023-01-27T05:21:44.681Z,1.70
2023-01-27T05:24:12.577Z,2.13
2023-01-27T05:26:41.086Z,1.63
2023-01-27T05:29:10.479Z,1.50
2023-01-27T05:31:38.788Z,1.27
2023-01-27T05:34:06.922Z,1.65
2023-01-27T05:36:34.946Z,1.65
2023-01-27T05:39:02.988Z,1.20
2023-01-27T05:41:32.016Z,1.95
2023-01-27T05:44:00.096Z,1.77
2023-01-27T05:46:30.228Z,4.20
2023-01-27T05:49:00.898Z,4.55
2023-01-27T05:51:31.843Z,7.90
2023-01-27T05:54:00.133Z,10.02
2023-01-27T05:56:28.177Z,3.88
2023-01-27T05:58:57.452Z,10.13
2023-01-27T06:01:30.995Z,3.60
2023-01-27T06:03:59.209Z,3.15
2023-01-27T06:06:29.267Z,5.60
2023-01-27T06:08:57.429Z,3.25
2023-01-27T06:11:26.059Z,3.47
2023-01-27T06:13:54.845Z,2.97
2023-01-27T06:16:23.723Z,3.88
2023-01-27T06:18:51.773Z,3.30
2023-01-27T06:21:20.772Z,2.85
2023-01-27T06:23:49.609Z,3.22
2023-01-27T06:26:19.009Z,5.00
2023-01-27T06:28:47.389Z,11.25
2023-01-27T06:31:21.950Z,7.97
2023-01-27T06:33:50.992Z,6.82
2023-01-27T06:36:21.902Z,9.07
2023-01-27T06:38:50.452Z,2.45
2023-01-27T06:41:18.841Z,2.13
2023-01-27T06:43:46.804Z,3.30
2023-01-27T06:46:15.284Z,2.63
2023-01-27T06:48:43.355Z,2.45
2023-01-27T06:51:11.559Z,5.18
2023-01-27T06:53:39.432Z,5.60
2023-01-27T06:56:07.920Z,5.95
2023-01-27T06:58:35.907Z,4.15
2023-01-27T07:01:06.757Z,13.48
2023-01-27T07:03:38.407Z,4.47
2023-01-27T07:06:06.587Z,6.03
2023-01-27T07:08:34.336Z,13.98
2023-01-27T07:11:04.687Z,5.93
2023-01-27T07:13:32.990Z,7.07
2023-01-27T07:16:00.832Z,6.13
2023-01-27T07:18:28.761Z,5.93
2023-01-27T07:20:56.684Z,7.10
2023-01-27T07:23:24.704Z,9.90
2023-01-27T07:25:52.636Z,22.10
2023-01-27T07:28:20.587Z,8.88
2023-01-27T07:30:48.571Z,8.30
2023-01-27T07:33:16.762Z,9.07
2023-01-27T07:35:44.691Z,15.63
2023-01-27T07:38:12.550Z,12.60
2023-01-27T07:40:40.921Z,11.80
2023-01-27T07:43:09.801Z,13.32
2023-01-27T07:45:40.914Z,14.00
2023-01-27T07:48:09.561Z,10.77
2023-01-27T07:50:39.305Z,9.95
2023-01-27T07:53:07.341Z,14.02
2023-01-27T07:55:35.456Z,12.00
2023-01-27T07:58:03.496Z,10.02
2023-01-27T08:00:32.616Z,11.25
2023-01-27T08:03:01.620Z,9.93
2023-01-27T08:05:32.159Z,9.50
2023-01-27T08:08:04.080Z,15.35
2023-01-27T08:10:32.293Z,7.82
2023-01-27T08:13:00.034Z,8.80
2023-01-27T08:15:28.688Z,7.38
2023-01-27T08:18:00.181Z,14.07
2023-01-27T08:20:28.898Z,6.80
2023-01-27T08:22:56.962Z,5.32
2023-01-27T08:25:24.990Z,10.05
2023-01-27T08:27:54.778Z,4.90
2023-01-27T08:30:23.204Z,6.10
2023-01-27T08:32:51.192Z,3.03
2023-01-27T08:35:19.378Z,5.38
2023-01-27T08:37:48.855Z,1.95
2023-01-27T08:40:17.344Z,8.32
2023-01-27T08:42:45.092Z,4.65
2023-01-27T08:45:13.744Z,1.67
2023-01-27T08:47:41.867Z,6.22
2023-01-27T08:50:10.857Z,2.80
2023-01-27T08:52:39.158Z,3.10
2023-01-27T08:55:07.111Z,3.65
2023-01-27T08:57:36.872Z,5.55
2023-01-27T09:00:07.001Z,3.35
2023-01-27T09:02:35.158Z,4.32
2023-01-27T09:05:03.319Z,5.68
2023-01-27T09:07:31.289Z,8.68
2023-01-27T09:10:13.333Z,10.82
2023-01-27T09:12:43.382Z,4.88
2023-01-27T09:15:12.484Z,9.88
2023-01-27T09:17:40.736Z,12.40
2023-01-27T09:20:09.495Z,11.25
2023-01-27T09:22:40.454Z,11.25
2023-01-27T09:25:09.881Z,10.77
2023-01-27T09:27:39.865Z,8.52
2023-01-27T09:30:09.713Z,10.32
2023-01-27T09:32:37.838Z,17.13
2023-01-27T09:35:06.284Z,10.82
2023-01-27T09:37:39.724Z,13.60
2023-01-27T09:40:32.340Z,7.43
2023-01-27T09:43:11.450Z,6.65
2023-01-27T09:45:59.122Z,9.05
2023-01-27T09:48:47.272Z,12.13
2023-01-27T09:51:45.335Z,12.35
2023-01-27T09:54:52.452Z,16.70
2023-01-27T09:57:56.984Z,8.02
2023-01-27T10:00:48.066Z,8.95
2023-01-27T10:03:28.170Z,5.82
2023-01-27T10:06:20.557Z,6.38
2023-01-27T10:08:52.538Z,3.45
2023-01-27T10:11:38.495Z,7.53
2023-01-27T10:14:09.182Z,5.47
2023-01-27T10:16:49.209Z,4.55
2023-01-27T10:19:25.913Z,5.05
2023-01-27T10:22:16.749Z,5.85
2023-01-27T10:25:00.877Z,3.97
2023-01-27T10:27:35.899Z,2.97
2023-01-27T10:33:14.337Z,4.28
2023-01-27T10:36:04.807Z,2.20
2023-01-27T10:38:41.998Z,7.82
2023-01-27T10:41:43.323Z,15.32
2023-01-27T10:44:11.127Z,3.78
2023-01-27T10:46:56.678Z,6.63
2023-01-27T10:49:56.817Z,14.60
2023-01-27T10:52:30.574Z,11.40
2023-01-27T10:55:18.856Z,11.85
2023-01-27T10:57:53.644Z,8.25
2023-01-27T11:01:04.706Z,3.53
2023-01-27T11:03:41.540Z,8.07
2023-01-27T11:06:25.559Z,11.10
2023-01-27T11:09:24.578Z,7.72
2023-01-27T11:11:53.426Z,9.80
2023-01-27T11:14:32.734Z,7.53
2023-01-27T11:17:15.398Z,6.03
2023-01-27T11:20:00.631Z,6.85
2023-01-27T11:22:38.465Z,16.52
2023-01-27T11:25:24.182Z,17.27
2023-01-27T11:28:06.060Z,29.52
2023-01-27T11:31:04.905Z,45.70
2023-01-27T11:33:45.182Z,82.70
2023-01-27T11:36:13.089Z,94.40
2023-01-27T11:38:40.910Z,108.78
2023-01-27T11:41:08.803Z,104.10
2023-01-27T11:43:38.482Z,98.18
2023-01-27T11:46:11.281Z,97.15
2023-01-27T11:48:45.120Z,97.60
2023-01-27T11:51:26.882Z,79.70
2023-01-27T11:54:04.225Z,76.47
2023-01-27T11:56:34.321Z,74.40
2023-01-27T11:59:05.105Z,66.75
2023-01-27T12:01:58.537Z,66.25
2023-01-27T12:04:55.795Z,70.40
2023-01-27T12:07:45.264Z,71.20
2023-01-27T12:10:26.494Z,66.30
2023-01-27T12:12:54.459Z,62.55
2023-01-27T12:15:22.721Z,66.13
2023-01-27T12:18:15.889Z,60.67
2023-01-27T12:20:50.733Z,57.83
2023-01-27T12:23:28.856Z,61.10
2023-01-27T12:26:04.571Z,61.45
2023-01-27T12:28:53.140Z,48.30
2023-01-27T12:31:32.027Z,52.28
2023-01-27T12:34:13.269Z,46.50
2023-01-27T12:36:43.003Z,45.60
2023-01-27T12:39:33.468Z,48.53
2023-01-27T12:42:01.321Z,46.72
2023-01-27T12:44:44.165Z,44.78
2023-01-27T12:47:29.111Z,44.38
2023-01-27T12:50:20.834Z,39.45
2023-01-27T12:53:02.532Z,31.50
2023-01-27T12:55:32.874Z,32.83
2023-01-27T12:58:01.812Z,31.02
2023-01-27T13:00:30.227Z,28.42
2023-01-27T13:03:16.375Z,29.65
2023-01-27T13:05:46.191Z,29.70
2023-01-27T13:08:16.500Z,25.35
2023-01-27T13:11:01.138Z,26.90
2023-01-27T13:13:30.359Z,28.60
2023-01-27T13:16:13.016Z,23.30
2023-01-27T13:18:42.672Z,24.77
2023-01-27T13:21:16.948Z,24.25
2023-01-27T13:23:45.835Z,24.48
2023-01-27T13:26:22.231Z,21.63
2023-01-27T13:29:09.196Z,16.08
2023-01-27T13:31:48.727Z,20.05
2023-01-27T13:34:36.593Z,28.85
2023-01-27T13:37:32.936Z,19.63
2023-01-27T13:40:06.567Z,17.10
2023-01-27T13:43:15.485Z,13.70
2023-01-27T13:46:26.332Z,14.13
2023-01-27T13:48:59.410Z,28.75
2023-01-27T13:51:30.409Z,13.70
2023-01-27T13:54:05.623Z,12.05
2023-01-27T13:56:51.932Z,11.60
2023-01-27T13:59:40.394Z,13.85
2023-01-27T14:02:35.946Z,11.70
2023-01-27T14:05:12.749Z,10.93
2023-01-27T14:07:45.072Z,12.02
2023-01-27T14:10:41.227Z,7.90
2023-01-27T14:13:29.902Z,8.18
2023-01-27T14:16:24.874Z,7.40
2023-01-27T14:19:06.041Z,7.57
2023-01-27T14:21:54.443Z,6.30
2023-01-27T14:24:38.729Z,8.77
2023-01-27T14:27:19.788Z,7.55
2023-01-27T14:30:05.511Z,7.70
2023-01-27T14:32:36.358Z,9.15
2023-01-27T14:35:36.056Z,6.43
2023-01-27T14:38:18.989Z,8.60
2023-01-27T14:41:04.554Z,5.70
2023-01-27T14:43:47.607Z,9.40
2023-01-27T14:46:22.334Z,6.93
2023-01-27T14:49:12.539Z,5.18
2023-01-27T14:51:45.677Z,6.18
2023-01-27T14:54:34.772Z,7.88
2023-01-27T14:57:22.828Z,9.48
2023-01-27T15:00:04.942Z,15.30
2023-01-27T15:02:57.189Z,9.52
2023-01-27T15:05:42.189Z,9.23
2023-01-27T15:08:36.723Z,8.55
2023-01-27T15:11:23.451Z,7.65
2023-01-27T15:13:58.045Z,8.35
2023-01-27T15:16:38.525Z,11.00
2023-01-27T15:19:24.408Z,12.43
2023-01-27T15:22:00.930Z,11.30
2023-01-27T15:24:35.228Z,6.05
2023-01-27T15:27:03.617Z,11.23
2023-01-27T15:29:31.966Z,6.88
2023-01-27T15:32:16.095Z,6.82
2023-01-27T15:34:45.563Z,3.13
2023-01-27T15:37:30.105Z,5.15
2023-01-27T15:40:18.149Z,4.82
2023-01-27T15:43:02.439Z,3.88
2023-01-27T15:45:42.470Z,5.32
2023-01-27T15:48:21.339Z,2.63
2023-01-27T15:51:01.110Z,5.40
2023-01-27T15:53:38.599Z,2.47
2023-01-27T15:56:06.780Z,6.65
2023-01-27T15:59:15.075Z,6.05
2023-01-27T16:01:48.190Z,6.78
2023-01-27T16:04:20.660Z,8.07
2023-01-27T16:07:02.333Z,8.15
2023-01-27T16:09:41.186Z,6.82
2023-01-27T16:12:24.585Z,8.00
2023-01-27T16:15:30.417Z,11.07
2023-01-27T16:18:02.482Z,15.48
2023-01-27T16:21:03.687Z,14.85
2023-01-27T16:23:43.522Z,20.00
2023-01-27T16:26:30.628Z,24.75
2023-01-27T16:29:23.804Z,27.25
2023-01-27T16:31:53.653Z,36.38
2023-01-27T16:34:26.239Z,25.70
2023-01-27T16:37:03.509Z,35.28
2023-01-27T16:39:46.120Z,27.42
2023-01-27T16:42:18.069Z,32.55
2023-01-27T16:44:48.868Z,34.60
2023-01-27T16:47:39.933Z,28.58
2023-01-27T16:50:11.480Z,35.03
2023-01-27T16:52:42.486Z,44.88
2023-01-27T16:55:22.243Z,39.00
2023-01-27T16:57:50.415Z,26.63
2023-01-27T17:00:27.947Z,30.75
2023-01-27T17:02:59.350Z,19.65
2023-01-27T17:05:27.963Z,19.50
2023-01-27T17:08:26.462Z,16.10
2023-01-27T17:11:06.756Z,25.50
2023-01-27T17:13:37.204Z,19.15
2023-01-27T17:16:07.921Z,22.33
2023-01-27T17:18:51.680Z,25.60
2023-01-27T17:21:41.358Z,17.77
2023-01-27T17:24:19.889Z,19.77
2023-01-27T17:26:50.178Z,20.77
2023-01-27T17:29:20.339Z,30.10
2023-01-27T17:31:48.922Z,21.60
2023-01-27T17:34:19.602Z,21.20
2023-01-27T17:37:19.580Z,17.73
2023-01-27T17:39:48.514Z,24.33
2023-01-27T17:42:20.193Z,14.98
2023-01-27T17:44:49.529Z,14.77
2023-01-27T17:47:19.021Z,12.57
2023-01-27T17:49:49.088Z,13.55
2023-01-27T17:52:24.168Z,17.83
2023-01-27T17:54:52.919Z,14.50
2023-01-27T17:57:24.619Z,13.30
2023-01-27T18:00:10.068Z,17.73
2023-01-27T18:02:49.898Z,16.73
2023-01-27T18:05:28.130Z,10.52
2023-01-27T18:07:56.203Z,16.30
2023-01-27T18:10:41.508Z,7.57
2023-01-27T18:13:18.320Z,6.28
2023-01-27T18:15:50.934Z,9.55
2023-01-27T18:18:35.424Z,7.25
2023-01-27T18:21:09.396Z,10.00
2023-01-27T18:23:45.995Z,10.07
2023-01-27T18:26:28.726Z,10.13
2023-01-27T18:28:58.840Z,8.90
2023-01-27T18:31:30.110Z,11.55
2023-01-27T18:34:00.384Z,6.10
2023-01-27T18:36:35.673Z,6.32
2023-01-27T18:39:25.470Z,17.60
2023-01-27T18:41:54.505Z,15.73
2023-01-27T18:44:27.953Z,15.45
2023-01-27T18:47:03.589Z,8.20
2023-01-27T18:49:31.680Z,15.75
2023-01-27T18:51:59.556Z,10.25
2023-01-27T18:54:27.413Z,11.93
2023-01-27T18:56:55.256Z,10.80
2023-01-27T18:59:23.251Z,16.85
2023-01-27T19:01:51.065Z,11.40
2023-01-27T19:04:18.853Z,12.35
2023-01-27T19:06:46.570Z,9.63
2023-01-27T19:09:14.818Z,12.65
2023-01-27T19:11:42.902Z,6.25
2023-01-27T19:14:11.103Z,13.77
2023-01-27T19:16:38.968Z,7.10
2023-01-27T19:19:10.676Z,12.93
2023-01-27T19:21:38.513Z,14.10
2023-01-27T19:24:11.525Z,7.70
2023-01-27T19:26:39.476Z,8.95
2023-01-27T19:29:12.604Z,12.85
2023-01-27T19:31:40.451Z,10.80
2023-01-27T19:34:11.568Z,10.07
2023-01-27T19:36:44.360Z,12.27
2023-01-27T19:39:15.087Z,11.68
2023-01-27T19:41:43.171Z,18.00
2023-01-27T19:44:11.209Z,14.80
2023-01-27T19:46:40.317Z,10.25
2023-01-27T19:49:12.256Z,9.15
2023-01-27T19:51:40.037Z,12.57
2023-01-27T19:54:10.151Z,12.13
2023-01-27T19:56:38.096Z,12.27
2023-01-27T19:59:08.579Z,5.88
2023-01-27T20:01:36.733Z,11.55
2023-01-27T20:04:04.761Z,5.40
2023-01-27T20:06:34.513Z,8.05
2023-01-27T20:09:03.793Z,5.70
2023-01-27T20:11:45.059Z,8.48
2023-01-27T20:14:15.343Z,9.93
2023-01-27T20:16:43.582Z,5.78
2023-01-27T20:19:17.404Z,6.38
2023-01-27T20:21:46.595Z,10.07
2023-01-27T20:24:16.474Z,8.63
2023-01-27T20:26:45.774Z,8.00
2023-01-27T20:29:14.308Z,9.70
2023-01-27T20:31:42.401Z,16.00
2023-01-27T20:34:10.260Z,13.27
2023-01-27T20:36:38.161Z,15.85
2023-01-27T20:39:14.046Z,16.70
2023-01-27T20:41:44.664Z,22.23
2023-01-27T20:44:15.030Z,25.58
2023-01-27T20:46:42.957Z,36.85
2023-01-27T20:49:10.827Z,30.80
2023-01-27T20:51:38.627Z,36.40
2023-01-27T20:54:06.457Z,41.22
2023-01-27T20:56:34.368Z,40.83
2023-01-27T20:59:02.443Z,39.85
2023-01-27T21:01:30.261Z,40.35
2023-01-27T21:03:58.303Z,44.72
2023-01-27T21:06:26.116Z,45.08
2023-01-27T21:08:54.057Z,46.95
2023-01-27T21:11:21.862Z,50.58
2023-01-27T21:13:51.587Z,49.65
2023-01-27T21:16:21.881Z,43.97
2023-01-27T21:18:49.921Z,49.38
2023-01-27T21:21:22.076Z,45.10
2023-01-27T21:23:50.485Z,43.25
2023-01-27T21:26:19.473Z,43.33
2023-01-27T21:28:47.601Z,43.47
2023-01-27T21:31:18.051Z,39.13
2023-01-27T21:33:47.012Z,37.97
2023-01-27T21:36:14.979Z,41.63
2023-01-27T21:38:42.808Z,40.03
2023-01-27T21:41:39.752Z,36.33
2023-01-27T21:44:37.716Z,33.97
2023-01-27T21:47:06.735Z,35.50
2023-01-27T21:49:55.093Z,37.63
2023-01-27T21:52:31.738Z,33.28
2023-01-27T21:55:05.159Z,30.33
2023-01-27T21:57:33.634Z,28.55
2023-01-27T22:00:01.785Z,27.67
2023-01-27T22:02:41.153Z,27.63
2023-01-27T22:05:10.500Z,25.67
2023-01-27T22:07:38.594Z,25.17
2023-01-27T22:10:08.485Z,31.55
2023-01-27T22:12:36.380Z,39.72
2023-01-27T22:15:06.678Z,40.63
2023-01-27T22:17:35.822Z,48.40
2023-01-27T22:20:05.036Z,45.53
2023-01-27T22:22:33.076Z,46.08
2023-01-27T22:25:01.155Z,41.58
2023-01-27T22:27:28.944Z,43.53
2023-01-27T22:29:56.780Z,35.42
2023-01-27T22:32:24.669Z,33.20
2023-01-27T22:34:52.531Z,35.58
2023-01-27T22:37:20.517Z,32.63
2023-01-27T22:39:50.812Z,31.13
2023-01-27T22:42:18.502Z,32.17
2023-01-27T22:44:49.008Z,28.75
2023-01-27T22:47:16.682Z,30.17
2023-01-27T22:49:44.721Z,26.52
2023-01-27T22:52:12.663Z,31.55
2023-01-27T22:54:40.862Z,32.00
2023-01-27T22:57:11.076Z,23.63
2023-01-27T22:59:38.927Z,27.58
2023-01-27T23:02:06.828Z,23.55
2023-01-27T23:04:35.590Z,30.17
2023-01-27T23:07:03.673Z,18.25
2023-01-27T23:09:34.582Z,23.10
2023-01-27T23:12:02.333Z,20.33
2023-01-27T23:14:30.162Z,17.58
2023-01-27T23:16:58.699Z,17.23
2023-01-27T23:19:26.511Z,14.77
2023-01-27T23:21:54.412Z,15.57
2023-01-27T23:24:22.454Z,13.38
2023-01-27T23:26:50.217Z,14.00
2023-01-27T23:29:24.540Z,25.08
2023-01-27T23:31:53.714Z,20.90
2023-01-27T23:34:21.811Z,17.77
2023-01-27T23:36:49.805Z,21.42
2023-01-27T23:39:20.773Z,19.98
2023-01-27T23:41:48.701Z,18.15
2023-01-27T23:44:16.669Z,16.55
2023-01-27T23:46:44.773Z,16.35
2023-01-27T23:49:12.959Z,19.17
2023-01-27T23:51:40.956Z,18.23
2023-01-27T23:54:09.115Z,11.98
2023-01-27T23:56:37.078Z,17.25
2023-01-27T23:59:04.905Z,14.35
